Lone Grove, OK (73443)

7:41 AM CST on February 26, 2017 (GMT -0600)
Carter County Dist 3 | | Change Station

Elev 927 ft 34.17 °N, 97.28 °W | Updated 10 minutes ago

Clear
Clear
40.7 °F
Feels Like 41 °F
N
3.0
Wind Variable Wind from SE
Gusts 14.0 mph

Today
High -- | Low -- °F
--% Chance of Precip.
Yesterday
High -- | Low -- °F
Precip. -- in
Pressure 29.96 in
Visibility 10.0 miles
Clouds Clear
Windchill 41 °F
Dew Point 29 °F
Humidity 64%
Rainfall 0.00 in
Snow Depth Not available.
7:01 AM 6:23 PM
Waning Crescent, 0% visible
METAR K1F0 261335Z AUTO 16007KT 10SM CLR 05/M02 A2996 RMK AO2
Pressure 29.96 in
Visibility 10.0 miles
Clouds Clear
Windchill 41 °F
Dew Point 29 °F
Humidity 64%
Rainfall 0.00 in
Snow Depth Not available.
7:01 AM 6:23 PM
Waning Crescent, 0% visible
METAR K1F0 261335Z AUTO 16007KT 10SM CLR 05/M02 A2996 RMK AO2

Get Your Daily Forecast Email!

Thanks for signing up!

Be on the lookout for a verification email in your inbox.

You'll start receiving the daily forecast at 8 AM.

×

10-Day Weather Forecast

Almanac

Astronomy

Feb. 26, 2017 Rise Set
Actual Time
Civil Twilight
Nautical Twilight
Astronomical Twilight
Moon
Length of Visible Light
Length of Day
Tomorrow will be .
, % of the Moon is Illuminated

Today's Extremes

State Highs State Lows

Community

WunderPhotos

Upload Photos

1,962,540 photos uploaded!

WunderBlog® & News

Nearby

Air Quality

  Air Quality AQ Index Pollutant
Not available.

Snow Depth

Station Depth Elevation

Earthquake Activity

City Distance Mag. Time & Date
Minimum magnitude displayed is 2.5.

Coastal Water Temperatures

Place Temperature

Stations

Nearby Weather Stations

Station Location Temp. Windchill Dew Point Humidity Wind Precip. Elev Updated Type
                   

Watches & Warnings

There are currently no watches in effect.